createdAt,value
2023-01-06T00:01:19.650Z,68.58
2023-01-06T00:03:51.832Z,68.66
2023-01-06T00:06:27.465Z,68.76
2023-01-06T00:08:59.475Z,68.67
2023-01-06T00:11:30.333Z,68.57
2023-01-06T00:14:01.174Z,68.46
2023-01-06T00:16:31.494Z,68.25
2023-01-06T00:19:01.889Z,68.30
2023-01-06T00:21:32.374Z,68.25
2023-01-06T00:24:03.006Z,68.40
2023-01-06T00:26:33.368Z,68.45
2023-01-06T00:29:03.933Z,68.33
2023-01-06T00:31:34.221Z,68.34
2023-01-06T00:34:05.155Z,68.29
2023-01-06T00:36:35.755Z,68.51
2023-01-06T00:39:05.871Z,68.66
2023-01-06T00:41:54.475Z,68.57
2023-01-06T00:44:25.946Z,68.48
2023-01-06T00:46:56.234Z,68.33
2023-01-06T00:49:27.052Z,68.42
2023-01-06T00:51:57.616Z,68.45
2023-01-06T00:54:28.130Z,68.33
2023-01-06T00:56:58.700Z,68.37
2023-01-06T00:59:29.336Z,68.45
2023-01-06T01:02:00.049Z,68.28
2023-01-06T01:04:30.748Z,68.20
2023-01-06T01:07:00.833Z,67.87
2023-01-06T01:09:32.540Z,67.78
2023-01-06T01:12:14.038Z,67.87
2023-01-06T01:14:47.128Z,68.26
2023-01-06T01:17:19.415Z,68.22
2023-01-06T01:19:51.805Z,68.02
2023-01-06T01:22:23.539Z,67.87
2023-01-06T01:24:53.519Z,67.83
2023-01-06T01:27:24.306Z,67.74
2023-01-06T01:29:56.006Z,67.74
2023-01-06T01:32:26.461Z,67.83
2023-01-06T01:34:57.108Z,67.87
2023-01-06T01:37:26.933Z,67.83
2023-01-06T01:39:57.265Z,67.81
2023-01-06T01:42:27.473Z,68.01
2023-01-06T01:45:05.867Z,67.90
2023-01-06T01:47:38.524Z,67.86
2023-01-06T01:50:14.889Z,67.66
2023-01-06T01:52:47.743Z,67.41
2023-01-06T01:55:19.082Z,67.41
2023-01-06T01:57:54.530Z,67.45
2023-01-06T02:00:25.012Z,67.45
2023-01-06T02:02:55.314Z,67.56
2023-01-06T02:05:28.206Z,67.58
2023-01-06T02:08:03.310Z,67.82
2023-01-06T02:10:34.658Z,67.80
2023-01-06T02:13:05.182Z,67.76
2023-01-06T02:15:35.736Z,67.65
2023-01-06T02:18:39.204Z,67.81
2023-01-06T02:21:27.622Z,67.61
2023-01-06T02:24:52.204Z,67.55
2023-01-06T02:27:48.009Z,67.71
2023-01-06T02:30:43.383Z,67.83
2023-01-06T02:33:21.856Z,67.94
2023-01-06T02:36:15.177Z,68.05
2023-01-06T02:38:59.381Z,67.96
2023-01-06T02:41:38.701Z,67.85
2023-01-06T02:44:16.080Z,67.88
2023-01-06T02:46:59.921Z,67.78
2023-01-06T02:49:40.026Z,68.00
2023-01-06T02:52:27.591Z,68.04
2023-01-06T02:55:03.760Z,67.86
2023-01-06T02:57:41.756Z,67.63
2023-01-06T03:00:20.610Z,67.56
2023-01-06T03:02:57.375Z,67.42
2023-01-06T03:05:30.587Z,67.45
2023-01-06T03:08:07.543Z,67.43
2023-01-06T03:10:42.439Z,67.08
2023-01-06T03:13:19.713Z,66.72
2023-01-06T03:15:50.527Z,66.74
2023-01-06T03:18:21.245Z,66.61
2023-01-06T03:20:53.868Z,66.49
2023-01-06T03:23:24.102Z,66.29
2023-01-06T03:25:54.693Z,65.97
2023-01-06T03:28:27.028Z,65.86
2023-01-06T03:31:06.940Z,66.05
2023-01-06T03:33:48.360Z,65.95
2023-01-06T03:36:29.860Z,65.77
2023-01-06T03:39:08.166Z,65.87
2023-01-06T03:42:02.250Z,65.86
2023-01-06T03:44:45.058Z,65.93
2023-01-06T03:47:23.699Z,65.86
2023-01-06T03:50:07.150Z,65.88
2023-01-06T03:52:45.817Z,65.97
2023-01-06T03:55:20.424Z,65.91
2023-01-06T03:57:54.645Z,65.98
2023-01-06T04:00:27.678Z,66.08
2023-01-06T04:03:02.601Z,66.04
2023-01-06T04:05:32.611Z,66.04
2023-01-06T04:08:04.662Z,66.11
2023-01-06T04:10:35.613Z,66.05
2023-01-06T04:13:05.993Z,65.98
2023-01-06T04:15:37.030Z,65.85
2023-01-06T04:18:09.789Z,65.78
2023-01-06T04:20:41.825Z,65.74
2023-01-06T04:23:18.863Z,65.52
2023-01-06T04:25:49.703Z,65.42
2023-01-06T04:28:24.696Z,65.57
2023-01-06T04:30:58.677Z,65.58
2023-01-06T04:33:29.474Z,65.68
2023-01-06T04:36:02.893Z,65.49
2023-01-06T04:38:32.918Z,65.53
2023-01-06T04:41:03.128Z,65.71
2023-01-06T04:43:33.736Z,65.65
2023-01-06T04:46:04.802Z,65.59
2023-01-06T04:48:34.889Z,65.58
2023-01-06T04:51:07.537Z,65.50
2023-01-06T04:53:39.439Z,65.63
2023-01-06T04:56:12.210Z,65.69
2023-01-06T04:58:42.519Z,65.60
2023-01-06T05:01:14.310Z,65.40
2023-01-06T05:03:44.672Z,65.44
2023-01-06T05:06:15.555Z,65.46
2023-01-06T05:08:46.801Z,65.44
2023-01-06T05:11:19.092Z,65.48
2023-01-06T05:13:50.128Z,65.34
2023-01-06T05:16:24.061Z,65.40
2023-01-06T05:18:55.572Z,65.40
2023-01-06T05:21:31.504Z,65.56
2023-01-06T05:24:03.030Z,65.56
2023-01-06T05:26:33.799Z,65.55
2023-01-06T05:29:04.029Z,65.51
2023-01-06T05:31:34.437Z,65.54
2023-01-06T05:34:04.471Z,65.51
2023-01-06T05:36:34.711Z,65.59
2023-01-06T05:39:05.246Z,65.64
2023-01-06T05:41:35.718Z,65.61
2023-01-06T05:44:06.419Z,65.41
2023-01-06T05:46:37.181Z,65.48
2023-01-06T05:49:09.094Z,65.28
2023-01-06T05:51:39.380Z,65.38
2023-01-06T05:54:10.841Z,65.43
2023-01-06T05:56:41.420Z,65.39
2023-01-06T05:59:11.718Z,65.32
2023-01-06T06:01:42.266Z,65.41
2023-01-06T06:04:14.011Z,65.21
2023-01-06T06:06:44.300Z,65.23
2023-01-06T06:09:14.104Z,65.09
2023-01-06T06:11:44.785Z,65.04
2023-01-06T06:14:17.204Z,65.02
2023-01-06T06:16:47.969Z,65.09
2023-01-06T06:19:18.450Z,65.09
2023-01-06T06:21:48.499Z,65.16
2023-01-06T06:24:19.012Z,65.18
2023-01-06T06:26:49.581Z,65.12
2023-01-06T06:29:19.712Z,64.93
2023-01-06T06:31:50.226Z,64.93
2023-01-06T06:34:20.462Z,65.12
2023-01-06T06:36:50.439Z,65.11
2023-01-06T06:39:21.271Z,65.18
2023-01-06T06:41:51.704Z,65.23
2023-01-06T06:44:21.811Z,65.33
2023-01-06T06:46:52.013Z,65.28
2023-01-06T06:49:22.522Z,65.39
2023-01-06T06:51:53.843Z,65.52
2023-01-06T06:54:25.749Z,65.38
2023-01-06T06:56:56.702Z,65.46
2023-01-06T06:59:27.253Z,65.36
2023-01-06T07:01:57.641Z,65.30
2023-01-06T07:04:28.230Z,65.31
2023-01-06T07:06:58.659Z,65.23
2023-01-06T07:09:29.274Z,65.21
2023-01-06T07:12:00.012Z,65.38
2023-01-06T07:14:30.375Z,65.46
2023-01-06T07:17:02.299Z,65.50
2023-01-06T07:19:32.466Z,65.26
2023-01-06T07:22:02.645Z,65.33
2023-01-06T07:24:33.214Z,65.37
2023-01-06T07:27:04.061Z,65.35
2023-01-06T07:29:34.105Z,65.16
2023-01-06T07:32:04.121Z,65.20
2023-01-06T07:34:34.003Z,65.15
2023-01-06T07:37:04.618Z,64.97
2023-01-06T07:39:34.801Z,64.89
2023-01-06T07:42:07.905Z,65.13
2023-01-06T07:44:38.389Z,65.16
2023-01-06T07:47:10.135Z,64.97
2023-01-06T07:49:40.836Z,64.92
2023-01-06T07:52:11.270Z,64.93
2023-01-06T07:54:41.825Z,64.90
2023-01-06T07:57:12.085Z,65.02
2023-01-06T07:59:42.219Z,64.97
2023-01-06T08:02:13.063Z,64.73
2023-01-06T08:04:43.592Z,64.64
2023-01-06T08:07:15.258Z,64.48
2023-01-06T08:09:46.288Z,64.55
2023-01-06T08:12:16.732Z,64.44
2023-01-06T08:14:47.056Z,64.38
2023-01-06T08:17:17.487Z,64.41
2023-01-06T08:19:47.711Z,64.41
2023-01-06T08:22:18.031Z,64.40
2023-01-06T08:24:48.373Z,63.99
2023-01-06T08:27:20.178Z,63.96
2023-01-06T08:29:51.716Z,64.05
2023-01-06T08:32:22.524Z,64.15
2023-01-06T08:34:53.006Z,64.28
2023-01-06T08:37:23.230Z,64.16
2023-01-06T08:39:53.443Z,64.08
2023-01-06T08:42:23.466Z,64.01
2023-01-06T08:44:53.409Z,64.05
2023-01-06T08:47:23.969Z,64.04
2023-01-06T08:49:54.263Z,63.89
2023-01-06T08:52:24.533Z,63.65
2023-01-06T08:54:54.680Z,63.84
2023-01-06T08:57:25.181Z,63.77
2023-01-06T08:59:55.337Z,63.85
2023-01-06T09:02:26.855Z,63.78
2023-01-06T09:04:57.675Z,63.60
2023-01-06T09:07:28.207Z,63.54
2023-01-06T09:09:58.583Z,63.24
2023-01-06T09:12:28.936Z,63.17
2023-01-06T09:14:59.563Z,63.45
2023-01-06T09:17:31.102Z,63.50
2023-01-06T09:20:01.656Z,63.37
2023-01-06T09:22:32.390Z,63.37
2023-01-06T09:25:03.714Z,63.05
2023-01-06T09:27:34.556Z,63.07
2023-01-06T09:30:07.643Z,62.92
2023-01-06T09:32:38.058Z,63.02
2023-01-06T09:35:10.764Z,62.95
2023-01-06T09:37:41.170Z,62.75
2023-01-06T09:40:18.029Z,62.81
2023-01-06T09:43:02.335Z,62.43
2023-01-06T09:45:37.541Z,62.37
2023-01-06T09:48:15.727Z,62.41
2023-01-06T09:50:48.895Z,62.64
2023-01-06T09:53:22.815Z,62.78
2023-01-06T09:55:57.595Z,62.79
2023-01-06T09:58:33.237Z,62.89
2023-01-06T10:01:08.259Z,62.70
2023-01-06T10:03:38.939Z,62.78
2023-01-06T10:06:28.227Z,62.68
2023-01-06T10:09:08.157Z,62.55
2023-01-06T10:11:53.121Z,62.26
2023-01-06T10:14:38.168Z,62.49
2023-01-06T10:17:22.682Z,62.68
2023-01-06T10:20:07.345Z,62.68
2023-01-06T10:22:47.842Z,62.56
2023-01-06T10:25:20.778Z,62.61
2023-01-06T10:27:59.994Z,62.63
2023-01-06T10:30:40.141Z,62.75
2023-01-06T10:33:22.079Z,62.78
2023-01-06T10:35:54.136Z,62.85
2023-01-06T10:38:28.049Z,62.67
2023-01-06T10:41:12.776Z,62.35
2023-01-06T10:43:42.843Z,62.35
2023-01-06T10:46:14.525Z,62.10
2023-01-06T10:48:46.453Z,61.70
2023-01-06T10:51:38.973Z,61.55
2023-01-06T10:54:12.346Z,61.25
2023-01-06T10:56:47.419Z,61.79
2023-01-06T10:59:18.146Z,62.20
2023-01-06T11:01:53.528Z,62.42
2023-01-06T11:04:26.053Z,62.35
2023-01-06T11:07:00.544Z,62.44
2023-01-06T11:09:39.408Z,62.35
2023-01-06T11:12:16.939Z,62.40
2023-01-06T11:14:56.478Z,62.67
2023-01-06T11:17:28.253Z,62.66
2023-01-06T11:20:27.317Z,62.94
2023-01-06T11:23:14.807Z,62.77
2023-01-06T11:26:00.284Z,62.73
2023-01-06T11:28:30.636Z,62.47
2023-01-06T11:31:04.239Z,62.25
2023-01-06T11:33:37.204Z,62.33
2023-01-06T11:36:13.957Z,62.49
2023-01-06T11:38:47.064Z,62.75
2023-01-06T11:41:25.090Z,62.78
2023-01-06T11:44:03.164Z,62.82
2023-01-06T11:46:33.642Z,62.84
2023-01-06T11:49:10.824Z,62.53
2023-01-06T11:51:49.895Z,62.60
2023-01-06T11:54:29.654Z,62.76
2023-01-06T11:57:02.534Z,62.75
2023-01-06T11:59:47.453Z,62.87
2023-01-06T12:02:25.090Z,63.13
2023-01-06T12:04:58.977Z,63.04
2023-01-06T12:07:39.236Z,62.83
2023-01-06T12:10:19.397Z,63.03
2023-01-06T12:12:50.441Z,62.98
2023-01-06T12:15:22.171Z,62.96
2023-01-06T12:17:55.498Z,63.02
2023-01-06T12:20:29.131Z,63.03
2023-01-06T12:23:01.704Z,62.95
2023-01-06T12:25:35.514Z,63.13
2023-01-06T12:28:10.517Z,63.18
2023-01-06T12:30:50.579Z,63.20
2023-01-06T12:33:27.183Z,63.20
2023-01-06T12:36:03.478Z,63.24
2023-01-06T12:38:46.948Z,63.33
2023-01-06T12:41:23.929Z,63.30
2023-01-06T12:44:01.278Z,63.40
2023-01-06T12:46:38.783Z,63.25
2023-01-06T12:49:20.699Z,63.38
2023-01-06T12:51:57.283Z,63.38
2023-01-06T12:54:31.556Z,63.33
2023-01-06T12:57:20.017Z,63.56
2023-01-06T13:00:04.263Z,63.77
2023-01-06T13:02:55.610Z,63.80
2023-01-06T13:05:48.330Z,63.76
2023-01-06T13:08:29.548Z,63.47
2023-01-06T13:11:14.489Z,63.43
2023-01-06T13:13:56.176Z,63.75
2023-01-06T13:16:37.174Z,63.76
2023-01-06T13:19:21.185Z,63.86
2023-01-06T13:21:54.066Z,63.80
2023-01-06T13:24:49.249Z,63.76
2023-01-06T13:27:38.410Z,63.92
2023-01-06T13:30:29.394Z,64.03
2023-01-06T13:33:43.210Z,63.97
2023-01-06T13:36:33.141Z,63.88
2023-01-06T13:39:09.290Z,64.04
2023-01-06T13:41:43.178Z,63.92
2023-01-06T13:44:19.368Z,63.92
2023-01-06T13:46:52.607Z,63.89
2023-01-06T13:49:23.118Z,64.01
2023-01-06T13:51:54.004Z,64.15
2023-01-06T13:55:05.420Z,64.35
2023-01-06T13:57:40.244Z,64.34
2023-01-06T14:00:29.061Z,64.58
2023-01-06T14:03:25.525Z,64.76
2023-01-06T14:06:00.639Z,64.48
2023-01-06T14:08:38.848Z,64.44
2023-01-06T14:11:26.623Z,64.38
2023-01-06T14:13:59.773Z,64.58
2023-01-06T14:16:54.787Z,64.60
2023-01-06T14:19:34.311Z,64.52
2023-01-06T14:22:16.757Z,64.29
2023-01-06T14:24:52.596Z,64.47
2023-01-06T14:27:54.508Z,64.16
2023-01-06T14:30:30.460Z,64.17
2023-01-06T14:33:21.255Z,64.42
2023-01-06T14:35:54.601Z,64.39
2023-01-06T14:38:31.893Z,64.58
2023-01-06T14:41:05.842Z,64.67
2023-01-06T14:43:45.991Z,64.59
2023-01-06T14:46:19.895Z,64.58
2023-01-06T14:48:54.864Z,64.55
2023-01-06T14:51:25.901Z,64.40
2023-01-06T14:54:05.894Z,64.48
2023-01-06T14:56:36.846Z,64.41
2023-01-06T14:59:11.812Z,64.51
2023-01-06T15:01:44.394Z,64.61
2023-01-06T15:04:27.489Z,64.72
2023-01-06T15:07:16.462Z,64.79
2023-01-06T15:09:48.375Z,64.73
2023-01-06T15:12:26.528Z,64.86
2023-01-06T15:14:57.264Z,64.94
2023-01-06T15:17:28.948Z,64.97
2023-01-06T15:19:59.497Z,65.09
2023-01-06T15:22:29.741Z,65.21
2023-01-06T15:25:00.102Z,65.34
2023-01-06T15:27:30.884Z,65.46
2023-01-06T15:30:01.037Z,65.43
2023-01-06T15:32:32.373Z,65.44
2023-01-06T15:35:02.948Z,65.71
2023-01-06T15:37:34.690Z,65.76
2023-01-06T15:40:06.885Z,65.92
2023-01-06T15:42:40.592Z,65.90
2023-01-06T15:45:25.104Z,65.93
2023-01-06T15:47:58.111Z,65.90
2023-01-06T15:50:31.531Z,65.97
2023-01-06T15:53:06.939Z,65.89
2023-01-06T15:55:40.067Z,66.00
2023-01-06T15:58:18.360Z,66.13
2023-01-06T16:00:51.239Z,66.12
2023-01-06T16:03:23.692Z,66.50
2023-01-06T16:06:11.265Z,66.59
2023-01-06T16:08:41.932Z,66.84
2023-01-06T16:11:47.408Z,66.95
2023-01-06T16:14:32.237Z,66.85
2023-01-06T16:17:09.021Z,67.14
2023-01-06T16:19:46.994Z,67.17
2023-01-06T16:22:38.354Z,67.11
2023-01-06T16:25:24.944Z,67.28
2023-01-06T16:27:57.675Z,67.47
2023-01-06T16:30:29.371Z,67.40
2023-01-06T16:33:00.897Z,67.45
2023-01-06T16:35:32.626Z,67.70
2023-01-06T16:38:03.303Z,67.95
2023-01-06T16:40:33.512Z,67.96
2023-01-06T16:43:04.890Z,67.97
2023-01-06T16:45:38.777Z,68.07
2023-01-06T16:48:13.911Z,68.20
2023-01-06T16:50:45.268Z,68.18
2023-01-06T16:53:19.490Z,68.34
2023-01-06T16:55:53.818Z,68.53
2023-01-06T16:58:27.488Z,68.68
2023-01-06T17:01:04.833Z,68.73
2023-01-06T17:03:38.267Z,68.89
2023-01-06T17:06:16.616Z,69.26
2023-01-06T17:08:47.757Z,69.55
2023-01-06T17:11:19.793Z,69.88
2023-01-06T17:13:54.421Z,70.41
2023-01-06T17:16:29.367Z,70.44
2023-01-06T17:19:02.279Z,70.71
2023-01-06T17:21:36.160Z,70.95
2023-01-06T17:24:14.835Z,71.43
2023-01-06T17:26:49.145Z,71.49
2023-01-06T17:29:21.103Z,71.76
2023-01-06T17:31:55.581Z,72.02
2023-01-06T17:34:31.346Z,72.57
2023-01-06T17:37:11.380Z,72.88
2023-01-06T17:39:43.835Z,73.28
2023-01-06T17:42:30.223Z,73.54
2023-01-06T17:45:01.542Z,73.81
2023-01-06T17:47:44.042Z,74.04
2023-01-06T17:50:29.059Z,74.10
2023-01-06T17:53:35.071Z,74.12
2023-01-06T17:56:08.089Z,74.87
2023-01-06T17:58:39.850Z,74.53
2023-01-06T18:01:16.768Z,74.64
2023-01-06T18:03:48.226Z,74.99
2023-01-06T18:06:27.195Z,75.29
2023-01-06T18:09:14.425Z,75.23
2023-01-06T18:11:48.514Z,75.34
2023-01-06T18:14:24.613Z,75.53
2023-01-06T18:16:57.054Z,75.98
2023-01-06T18:19:36.971Z,76.21
2023-01-06T18:22:16.737Z,76.27
2023-01-06T18:24:50.151Z,76.41
2023-01-06T18:27:26.868Z,76.65
2023-01-06T18:30:12.991Z,76.86
2023-01-06T18:32:45.383Z,77.39
2023-01-06T18:35:20.174Z,77.34
2023-01-06T18:37:52.072Z,77.64
2023-01-06T18:40:25.069Z,78.05
2023-01-06T18:42:56.541Z,78.88
2023-01-06T18:45:31.995Z,78.78
2023-01-06T18:48:16.695Z,79.27
2023-01-06T18:50:50.043Z,79.79
2023-01-06T18:53:27.409Z,80.29
2023-01-06T18:56:00.962Z,80.41
2023-01-06T18:58:40.976Z,80.99
2023-01-06T19:01:19.141Z,81.50
2023-01-06T19:04:15.535Z,81.62
2023-01-06T19:06:51.357Z,81.84
2023-01-06T19:09:26.717Z,81.93
2023-01-06T19:12:18.936Z,82.03
2023-01-06T19:14:52.276Z,82.18
2023-01-06T19:17:28.138Z,82.13
2023-01-06T19:20:02.580Z,82.11
2023-01-06T19:22:34.639Z,82.39
2023-01-06T19:25:14.735Z,82.44
2023-01-06T19:27:52.014Z,82.43
2023-01-06T19:30:44.370Z,82.24
2023-01-06T19:33:36.556Z,82.45
2023-01-06T19:36:39.530Z,82.56
2023-01-06T19:39:33.561Z,82.67
2023-01-06T19:42:24.959Z,82.37
2023-01-06T19:45:00.702Z,82.44
2023-01-06T19:47:38.927Z,82.59
2023-01-06T19:50:19.673Z,82.47
2023-01-06T19:52:55.779Z,82.80
2023-01-06T19:55:29.714Z,82.98
2023-01-06T19:58:02.443Z,82.82
2023-01-06T20:00:41.635Z,82.98
2023-01-06T20:03:27.565Z,82.92
2023-01-06T20:05:59.049Z,83.22
2023-01-06T20:08:29.938Z,83.40
2023-01-06T20:11:00.429Z,83.65
2023-01-06T20:13:30.545Z,83.71
2023-01-06T20:16:01.888Z,83.82
2023-01-06T20:18:32.445Z,83.92
2023-01-06T20:21:03.126Z,83.91
2023-01-06T20:23:35.084Z,84.06
2023-01-06T20:26:06.842Z,83.93
2023-01-06T20:28:38.000Z,83.79
2023-01-06T20:31:09.632Z,83.61
2023-01-06T20:33:40.792Z,83.79
2023-01-06T20:36:16.738Z,83.84
2023-01-06T20:38:48.872Z,83.68
2023-01-06T20:41:22.538Z,83.45
2023-01-06T20:43:54.793Z,83.46
2023-01-06T20:46:25.833Z,83.35
2023-01-06T20:48:56.351Z,83.68
2023-01-06T20:51:27.279Z,83.54
2023-01-06T20:53:58.529Z,83.71
2023-01-06T20:56:29.578Z,83.82
2023-01-06T20:59:00.141Z,83.80
2023-01-06T21:01:30.228Z,83.68
2023-01-06T21:04:01.864Z,83.65
2023-01-06T21:06:32.050Z,83.59
2023-01-06T21:09:03.341Z,83.58
2023-01-06T21:11:35.174Z,83.48
2023-01-06T21:14:07.689Z,83.36
2023-01-06T21:16:38.159Z,83.25
2023-01-06T21:19:09.077Z,83.34
2023-01-06T21:21:39.485Z,83.28
2023-01-06T21:24:10.371Z,83.22
2023-01-06T21:26:40.817Z,83.14
2023-01-06T21:29:11.779Z,83.22
2023-01-06T21:31:43.435Z,83.19
2023-01-06T21:34:13.985Z,83.18
2023-01-06T21:36:44.324Z,83.22
2023-01-06T21:39:14.836Z,83.09
2023-01-06T21:42:04.010Z,82.98
2023-01-06T21:44:34.662Z,82.95
2023-01-06T21:47:05.357Z,82.94
2023-01-06T21:49:35.968Z,82.98
2023-01-06T21:52:06.986Z,82.85
2023-01-06T21:54:37.621Z,82.94
2023-01-06T21:57:08.443Z,82.90
2023-01-06T21:59:39.410Z,83.15
2023-01-06T22:02:09.936Z,83.13
2023-01-06T22:04:40.206Z,83.07
2023-01-06T22:07:10.629Z,82.92
2023-01-06T22:09:42.742Z,82.91
2023-01-06T22:12:16.312Z,83.10
2023-01-06T22:14:49.131Z,83.26
2023-01-06T22:17:20.800Z,83.00
2023-01-06T22:19:54.165Z,82.70
2023-01-06T22:22:25.183Z,82.82
2023-01-06T22:24:56.963Z,82.91
2023-01-06T22:27:27.412Z,82.93
2023-01-06T22:29:57.592Z,82.80
2023-01-06T22:32:28.798Z,82.70
2023-01-06T22:34:59.093Z,82.47
2023-01-06T22:37:29.369Z,82.31
2023-01-06T22:40:00.006Z,82.44
2023-01-06T22:42:30.505Z,82.56
2023-01-06T22:45:00.439Z,82.74
2023-01-06T22:47:30.522Z,82.80
2023-01-06T22:50:01.098Z,82.85
2023-01-06T22:52:31.553Z,82.79
2023-01-06T22:55:01.936Z,82.83
2023-01-06T22:57:32.416Z,82.73
2023-01-06T23:00:07.146Z,82.38
2023-01-06T23:02:37.961Z,81.98
2023-01-06T23:05:10.226Z,81.98
2023-01-06T23:07:42.059Z,82.07
2023-01-06T23:10:14.416Z,82.09
2023-01-06T23:12:44.732Z,81.83
2023-01-06T23:15:15.281Z,82.00
2023-01-06T23:17:45.937Z,82.27
2023-01-06T23:20:16.564Z,82.21
2023-01-06T23:22:46.903Z,82.21
2023-01-06T23:25:17.518Z,82.19
2023-01-06T23:27:47.893Z,82.33
2023-01-06T23:30:18.682Z,82.11
2023-01-06T23:32:48.968Z,82.01
2023-01-06T23:35:19.716Z,82.02
2023-01-06T23:37:50.435Z,81.98
2023-01-06T23:40:21.208Z,81.80
2023-01-06T23:42:51.758Z,81.70
2023-01-06T23:45:22.237Z,81.53
2023-01-06T23:47:52.664Z,81.45
2023-01-06T23:50:23.353Z,81.72
2023-01-06T23:52:54.815Z,81.77
2023-01-06T23:55:25.465Z,81.52
2023-01-06T23:57:55.794Z,81.72
